Terminal Aerodrome Forecast
Issued by NWS

Home | Current Version | Previous Version | Graphics & Text | Print | Product List | Glossary On
Versions: 1 2 3 4 5 6 7 8 9 10 11 12
000
FTUS43 KBIS 051151
TAFMOT
TAF
KMOT 051151Z 0512/0612 15013G23KT P6SM OVC090
     FM051600 16017G24KT P6SM SCT100
     FM060100 14010KT P6SM FEW040=

USA.gov is the U.S. government's official web portal to all federal, state and local government web resources and services.